Sikuliaq — WDG7520 — position and weather

sailwx.info

Track history (hours):
 
Tides and Currents Weather Stations Pressure Air Temp Water Temp Dewpoint Dewpoint Depression Visibility Wind Speed Wind Dir Waves Ship Positions

Oceanographic research ship Sikuliaq (USA)

Owner: Mackay Communications, Raleigh, NC. More information available from US FCC via Universal Licensing System.

Last reported at 2020-Jan-19 15:00 UTC. Time now 2020-Jan-19 16:44 UTC.
Position N 47°36' W 122°18'.

Length 80 m; draft 6 m.

Type: Other ship. MMSI: 338417000.

Wind from 140 at 1 knots

Barometer 1022.6 mb
Air temperature 7.3 ° C
Dewpoint 4.3 ° C

Date/timePositionNaut miles runAvg speedWind from/ knotsBaromVisibWave heightAir tempDewpointWater temp
2020-Jan-19 15:00N 47°36' W 122°18'0 0.0 140 / 11022.6 7.3 4.3
2020-Jan-19 14:00N 47°36' W 122°18'0 0.0 180 / 21022.9 7.8 3.5
2020-Jan-19 13:00N 47°36' W 122°18'0 0.0 150 / 21023.2 7.5 4.8
2020-Jan-19 12:00N 47°36' W 122°18'0 0.0 080 / 11023.9 7.3 4.5
2020-Jan-19 11:00N 47°36' W 122°18'0 0.0 160 / 21024.1 7.3 4.5
2020-Jan-19 10:00N 47°36' W 122°18'0 0.0 130 / 11024.3 6.9 4.4
2020-Jan-19 09:00N 47°36' W 122°18'0 0.0 150 / 21024.3 7.5 3.6
2020-Jan-19 08:00N 47°36' W 122°18'0 0.0 150 / 11024.6 7.9 3.0
2020-Jan-19 07:00N 47°36' W 122°18'0 0.0 120 / 31024.4 8.2 2.6
2020-Jan-19 06:00N 47°36' W 122°18'0 0.0 120 / 31024.3 8.9 2.5
2020-Jan-19 05:00N 47°36' W 122°18'0 0.0 130 / 21023.9 9.2 3.1
2020-Jan-19 04:00N 47°36' W 122°18'0 0.0 150 / 51023.7 9.3 3.5
2020-Jan-19 03:00N 47°36' W 122°18'0 0.0 150 / 31023.2 9.3 4.4
2020-Jan-19 02:00N 47°36' W 122°18'0 0.0 140 / 11022.7 9.5 5.7
2020-Jan-19 01:00N 47°36' W 122°18'0 0.0 140 / 21022.0 10.3 5.0
2020-Jan-19 00:00N 47°36' W 122°18'0 0.0 150 / 31021.4 10.8 5.3
2020-Jan-18 23:00N 47°36' W 122°18'0 0.0 170 / 91021.0 11.0 5.1
2020-Jan-18 22:00N 47°36' W 122°18'0 0.0 140 / 21020.6 9.2 5.8
2020-Jan-18 21:00N 47°36' W 122°18'0 0.0 100 / 51020.2 9.0 4.4
2020-Jan-18 20:00N 47°36' W 122°18'0 0.0 130 / 21020.1 7.4 4.4
2020-Jan-18 19:00N 47°36' W 122°18'0 0.0 130 / 21020.2 6.3 4.2
2020-Jan-18 18:00N 47°36' W 122°18'0 0.0 140 / 21019.5 5.1 3.9
2020-Jan-18 17:00N 47°36' W 122°18'0 0.0 120 / 21018.7 5.0 3.9
2020-Jan-18 16:00N 47°36' W 122°18'0 0.0 110 / 21017.9 5.0 3.9
2020-Jan-18 15:00N 47°36' W 122°18'3 8.8 100 / 41017.3 4.9 4.0
2020-Jan-18 14:39N 47°39' W 122°19'3 4.6
2020-Jan-18 14:00N 47°36' W 122°18'0 0.0 120 / 31017.0 5.1 4.0
2020-Jan-18 13:00N 47°36' W 122°18'0 0.0 110 / 11016.9 5.0 4.0
2020-Jan-18 12:00N 47°36' W 122°18'0 0.0 110 / 31016.8 4.9 3.7
2020-Jan-18 11:00N 47°36' W 122°18'0 0.0 110 / 61017.2 5.3 2.9
2020-Jan-18 10:00N 47°36' W 122°18'0 0.0 150 / 41017.9 4.5 2.4
2020-Jan-18 09:00N 47°36' W 122°18'0 0.0 130 / 31018.0 4.7 1.4
2020-Jan-18 08:00N 47°36' W 122°18'0 0.0 160 / 41018.8 5.2 0.5
2020-Jan-18 07:00N 47°36' W 122°18'0 0.0 130 / 11018.9 5.4-0.3
2020-Jan-18 06:00N 47°36' W 122°18'0 0.0 140 / 11019.1 5.2-0.5
2020-Jan-18 05:00N 47°36' W 122°18'0 0.0 130 / 11019.8 5.4-0.6
2020-Jan-18 04:00N 47°36' W 122°18'0 0.0 110 / 21020.1 5.5-0.6
2020-Jan-18 03:00N 47°36' W 122°18'0 0.0 120 / 21020.6 5.5 0.5
2020-Jan-18 02:00N 47°36' W 122°18'0 0.0 120 / 21021.0 5.5 0.7
2020-Jan-18 01:00N 47°36' W 122°18'0 0.0 120 / 21021.5 5.3 0.5
2020-Jan-18 00:00N 47°36' W 122°18'0 0.0 140 / 31021.5 5.4 0.3
2020-Jan-17 23:00N 47°36' W 122°18'0 0.0 120 / 31021.1 5.6-0.7
2020-Jan-17 22:00N 47°36' W 122°18'0 0.0 140 / 41020.8 5.5-1.8
2020-Jan-17 21:00N 47°36' W 122°18'0 0.0 110 / 31021.0 4.9-0.9
2020-Jan-17 20:00N 47°36' W 122°18'0 0.0 110 / 21020.9 4.5-0.9
2020-Jan-17 19:00N 47°36' W 122°18'3 5.6 140 / 21021.1 4.2 0.8
2020-Jan-17 18:27N 47°39' W 122°19'3 6.7
2020-Jan-17 18:00N 47°36' W 122°18'3 6.1 100 / 21020.3 3.7 1.0
2020-Jan-17 17:30N 47°39' W 122°19'3 6.0
2020-Jan-17 17:00N 47°36' W 122°18'0 0.0 150 / 31019.6 2.6 1.1
2020-Jan-17 16:00N 47°36' W 122°18'0 0.0 200 / 21018.8 2.6 0.9
2020-Jan-17 15:00N 47°36' W 122°18'368.6 170 / 21018.2 2.3 0.4
2020-Jan-17 14:57N 47°39' W 122°19'3 3.2
2020-Jan-17 14:00N 47°36' W 122°18'0 0.0 200 / 11017.4 2.3 0.7
2020-Jan-17 13:00N 47°36' W 122°18'0 0.0 170 / 31016.7 1.7 0.5
2020-Jan-17 12:00N 47°36' W 122°18'0 0.0 230 / 11015.7 2.5 0.6
2020-Jan-17 11:00N 47°36' W 122°18'0 0.0 150 / 51014.7 2.4 0.6
2020-Jan-17 10:00N 47°36' W 122°18'0 0.0 120 / 21013.7 2.9 0.7
2020-Jan-17 09:00N 47°36' W 122°18'3 4.4 160 / 51012.6 3.0 0.9
2020-Jan-17 08:18N 47°39' W 122°19'3 9.9
2020-Jan-17 08:00N 47°36' W 122°18'0 0.0 150 / 41011.7 2.8 0.8
2020-Jan-17 07:00N 47°36' W 122°18'0 0.0 150 / 31010.7 3.4 1.0
2020-Jan-17 06:00N 47°36' W 122°18'0 0.0 170 / 71009.6 3.4 0.9
2020-Jan-17 05:00N 47°36' W 122°18'0 0.0 160 / 51008.8 3.6 0.7
2020-Jan-17 04:00N 47°36' W 122°18'0 0.0 170 / 81008.3 4.0-0.0
2020-Jan-17 03:00N 47°36' W 122°18'0 0.0 140 / 21007.4 4.4 0.1
2020-Jan-17 02:00N 47°36' W 122°18'0 0.0 270 / 11006.9 3.9 0.4
2020-Jan-17 01:00N 47°36' W 122°18'0 0.0 220 / 101006.1 6.1-1.7
2020-Jan-17 00:00N 47°36' W 122°18'0 0.0 210 / 51005.3 6.7-3.1
2020-Jan-16 23:00N 47°36' W 122°18'0 0.0 220 / 71004.8 7.3-3.6
2020-Jan-16 22:00N 47°36' W 122°18'0 0.0 200 / 81004.4 7.2-2.7
2020-Jan-16 21:00N 47°36' W 122°18'0 0.0 210 / 51004.4 6.7-2.9
2020-Jan-16 20:00N 47°36' W 122°18'0 0.0 190 / 91004.5 6.5-0.9
2020-Jan-16 19:00N 47°36' W 122°18'0 0.0 150 / 41005.1 5.6 1.7
2020-Jan-16 18:00N 47°36' W 122°18'0 0.0 150 / 61004.0 4.5 1.2
2020-Jan-16 17:00N 47°36' W 122°18'0 0.0 140 / 61003.1 3.8 1.3
2020-Jan-16 16:00N 47°36' W 122°18'0 0.0 140 / 41003.0 3.6 1.3
2020-Jan-16 15:00N 47°36' W 122°18'0 0.0 130 / 41002.1 4.0 1.9
2020-Jan-16 14:00N 47°36' W 122°18'0 0.0 130 / 21001.8 4.1 1.0
2020-Jan-16 13:00N 47°36' W 122°18'0 0.0 130 / 31001.2 4.4-0.3
2020-Jan-16 12:00N 47°36' W 122°18'0 0.0 140 / 41001.1 4.6 0.5
2020-Jan-16 11:00N 47°36' W 122°18'0 0.0 150 / 21000.8 5.5-1.5
2020-Jan-16 10:00N 47°36' W 122°18'0 0.0 150 / 21000.0 5.7-1.4
2020-Jan-16 09:00N 47°36' W 122°18'0 0.0 140 / 3999.2 5.8-1.3
2020-Jan-16 08:00N 47°36' W 122°18'0 0.0 150 / 5998.8 6.4-2.7
2020-Jan-16 07:00N 47°36' W 122°18'0 0.0 150 / 4997.7 6.2-3.3
2020-Jan-16 06:00N 47°36' W 122°18'0 0.0 130 / 4996.5 6.5-3.0
2020-Jan-16 05:00N 47°36' W 122°18'0 0.0 130 / 4995.8 6.3-3.6
2020-Jan-16 04:00N 47°36' W 122°18'0 0.0 110 / 5995.5 5.8-4.1
2020-Jan-16 03:00N 47°36' W 122°18'0 0.0 130 / 5995.7 5.8-4.7
2020-Jan-16 02:00N 47°36' W 122°18'0 0.0 140 / 4995.8 5.4-4.3
2020-Jan-16 01:00N 47°36' W 122°18'0 0.0 100 / 7995.3 4.6-3.9
2020-Jan-16 00:00N 47°36' W 122°18'3 6.1 130 / 6996.4 3.6-2.4
2020-Jan-15 23:30N 47°39' W 122°19'3 6.0
2020-Jan-15 23:00N 47°36' W 122°18'3 3.2 110 / 6998.4 1.3-0.1
2020-Jan-15 22:03N 47°39' W 122°19'354.2
2020-Jan-15 22:00N 47°36' W 122°18'0 0.0 110 / 81000.6 1.8-1.2
2020-Jan-15 21:00N 47°36' W 122°18'0 0.0 110 / 141001.9 4.6-6.2
2020-Jan-15 20:00N 47°36' W 122°18'3 6.8 110 / 41004.5 3.2-6.0
2020-Jan-15 19:33N 47°39' W 122°19'3 5.5
2020-Jan-15 19:00N 47°36' W 122°18'0 0.0 130 / 21007.1 3.0-5.4
2020-Jan-15 18:00N 47°36' W 122°18'321.0 100 / 81007.9 2.5-8.2
2020-Jan-15 17:51N 47°39' W 122°19'3 3.5
2020-Jan-15 17:00N 47°36' W 122°18'0 0.0 130 / 41009.4 2.6-7.1
2020-Jan-15 16:00N 47°36' W 122°18'0 0.0 120 / 31010.2 1.9-5.3
2020-Jan-15 15:00N 47°36' W 122°18'0 0.0 100 / 41010.9 3.4-5.8
2020-Jan-15 14:00N 47°36' W 122°18'0 0.0 140 / 71011.7 3.6-5.9
2020-Jan-15 13:00N 47°36' W 122°18'0 0.0 140 / 61012.4 3.5-4.9
2020-Jan-15 12:00N 47°36' W 122°18'0 0.0 120 / 41013.2 3.1-4.4
2020-Jan-15 11:00N 47°36' W 122°18'0 0.0 150 / 51014.0 3.0-4.1
2020-Jan-15 10:00N 47°36' W 122°18'0 0.0 160 / 101014.2 2.8-4.6
2020-Jan-15 09:00N 47°36' W 122°18'0 0.0 160 / 91014.5 2.7-3.9
2020-Jan-15 08:00N 47°36' W 122°18'0 0.0 160 / 121014.4 2.7-3.5
2020-Jan-15 07:00N 47°36' W 122°18'0 0.0 160 / 121014.2 3.0-2.9
2020-Jan-15 06:00N 47°36' W 122°18'0 0.0 160 / 81014.1 2.5-2.3
2020-Jan-15 05:00N 47°36' W 122°18'0 0.0 150 / 81014.0 1.8-2.2
2020-Jan-15 04:00N 47°36' W 122°18'0 0.0 130 / 41014.7 1.5-1.2
2020-Jan-15 03:00N 47°36' W 122°18'0 0.0 150 / 61015.0 1.7-1.9
2020-Jan-15 02:00N 47°36' W 122°18'0 0.0 130 / 31015.0 1.3-3.0
2020-Jan-15 01:00N 47°36' W 122°18'0 0.0 120 / 11015.4 -0.0-3.5
2020-Jan-15 00:00N 47°36' W 122°18'321.0 110 / 71015.4 -0.3-4.0
2020-Jan-14 23:51N 47°39' W 122°19'3 3.5
2020-Jan-14 23:00N 47°36' W 122°18'0 0.0 130 / 21015.0 -0.2-3.7
2020-Jan-14 22:00N 47°36' W 122°18'3 4.1 120 / 31014.4 -0.7-3.2
2020-Jan-14 21:15N 47°39' W 122°19'0 0.0
2020-Jan-14 21:00N 47°39' W 122°19'3545.0
2020-Jan-14 21:00N 47°36' W 122°18'0 0.0 020 / 21013.7 -1.3-4.1
2020-Jan-14 20:00N 47°36' W 122°18'3 5.1 340 / 31013.2 -1.4-4.0
2020-Jan-14 19:24N 47°39' W 122°19'3 7.5
2020-Jan-14 19:00N 47°36' W 122°18'3 5.6 220 / 11012.8 -1.5-3.9
2020-Jan-14 18:27N 47°39' W 122°19'3 6.6
2020-Jan-14 18:00N 47°36' W 122°18'315.6 350 / 31011.9 -1.7-3.8
2020-Jan-14 17:48N 47°39' W 122°19'0 0.0
2020-Jan-14 17:27N 47°39' W 122°19'0 0.0
2020-Jan-14 17:00N 47°39' W 122°19'3545.0
2020-Jan-14 17:00N 47°36' W 122°18'0 0.0 1011.0 -1.5-3.8
2020-Jan-14 16:00N 47°36' W 122°18'0 0.0 040 / 41010.4 -1.5-4.1
2020-Jan-14 15:00N 47°36' W 122°18'0 0.0 020 / 41010.2 -1.8-4.5
2020-Jan-14 14:00N 47°36' W 122°18'3 6.1 220 / 11010.0 -1.7-4.2
2020-Jan-14 13:30N 47°39' W 122°19'3 6.0
2020-Jan-14 13:00N 47°36' W 122°18'0 0.0 050 / 11009.7 -1.7-4.1
2020-Jan-14 12:00N 47°36' W 122°18'315.6 350 / 41009.9 -1.8-4.1
2020-Jan-14 11:48N 47°39' W 122°19'0 0.0
2020-Jan-14 11:18N 47°39' W 122°19'0 0.0
2020-Jan-14 11:00N 47°39' W 122°19'3545.0
2020-Jan-14 11:00N 47°36' W 122°18'3 3.0 1009.9 -1.7-4.0
2020-Jan-14 10:00N 47°39' W 122°19'3545.0
2020-Jan-14 10:00N 47°36' W 122°18'0 0.0 030 / 41009.4 -1.9-3.8
2020-Jan-14 09:00N 47°36' W 122°18'0 0.0 040 / 21009.1 -1.4-3.5
2020-Jan-14 08:00N 47°36' W 122°18'3 3.0 020 / 31009.4 -1.4-3.4
2020-Jan-14 07:00N 47°39' W 122°19'3545.0
2020-Jan-14 07:00N 47°36' W 122°18'0 0.0 010 / 51009.2 -1.4-3.3
2020-Jan-14 06:00N 47°36' W 122°18'3 6.1 350 / 31009.1 -1.0-3.1
2020-Jan-14 05:30N 47°39' W 122°19'3 6.0
2020-Jan-14 05:00N 47°36' W 122°18'0 0.0 010 / 31009.0 -0.9-2.8
2020-Jan-14 04:00N 47°36' W 122°18'0 0.0 010 / 31009.1 -0.6-3.1
2020-Jan-14 03:00N 47°36' W 122°18'0 0.0 310 / 61008.8 -0.4-2.9
2020-Jan-14 02:00N 47°36' W 122°18'0 0.0 360 / 41008.9 -0.0-3.0
2020-Jan-14 01:00N 47°36' W 122°18'0 0.0 350 / 41009.1 0.4-1.9
2020-Jan-14 00:00N 47°36' W 122°18'0 0.0 340 / 71009.1 0.8-1.2
2020-Jan-13 23:00N 47°36' W 122°18'0 0.0 360 / 71008.9 0.9-0.1
2020-Jan-13 22:00N 47°36' W 122°18'0 0.0 270 / 11009.0 1.4 0.5
2020-Jan-13 21:00N 47°36' W 122°18'0 0.0 100 / 21009.5 1.6 0.4
2020-Jan-13 20:00N 47°36' W 122°18'0 0.0 330 / 21010.2 1.3 0.3
2020-Jan-13 19:00N 47°36' W 122°18'0 0.0 020 / 41010.6 1.3-0.4
2020-Jan-13 18:00N 47°36' W 122°18'0 0.0 260 / 61010.4 1.4-0.7
2020-Jan-13 17:00N 47°36' W 122°18'0 0.0 280 / 51010.1 1.2-1.2
2020-Jan-13 16:00N 47°36' W 122°18'0 0.0 300 / 51009.7 1.1-1.2
2020-Jan-13 15:00N 47°36' W 122°18'0 0.0 290 / 11009.8 0.9-0.9
2020-Jan-13 14:00N 47°36' W 122°18'0 0.0 200 / 11009.7 0.6-0.2
2020-Jan-13 13:00N 47°36' W 122°18'0 0.0 250 / 31009.9 0.6-0.7
2020-Jan-13 12:00N 47°36' W 122°18'0 0.0 160 / 61009.5 1.3-1.4
2020-Jan-13 11:00N 47°36' W 122°18'0 0.0 160 / 31009.2 0.9-0.2
2020-Jan-13 10:00N 47°36' W 122°18'0 0.0 090 / 11008.5 0.9 0.2
2020-Jan-13 09:00N 47°36' W 122°18'0 0.0 160 / 31007.5 0.8-0.1
2020-Jan-13 08:00N 47°36' W 122°18'0 0.0 170 / 31006.9 0.9 0.2
2020-Jan-13 07:00N 47°36' W 122°18'0 0.0 220 / 21006.0 0.7-0.3
2020-Jan-13 06:00N 47°36' W 122°18'0 0.0 020 / 31005.2 1.2-0.3
2020-Jan-13 05:00N 47°36' W 122°18'0 0.0 190 / 61003.6 3.3-2.4
2020-Jan-13 04:00N 47°36' W 122°18'0 0.0 180 / 61002.5 3.7-2.6
2020-Jan-13 03:00N 47°36' W 122°18'0 0.0 180 / 61001.4 4.1-1.3
2020-Jan-13 02:00N 47°36' W 122°18'0 0.0 180 / 51000.4 4.4-0.0
2020-Jan-13 01:00N 47°36' W 122°18'0 0.0 200 / 10999.9 5.0-0.9
2020-Jan-13 00:00N 47°36' W 122°18'0 0.0 110 / 3999.7 5.2 2.1
2020-Jan-12 23:00N 47°36' W 122°18'0 0.0 100 / 5999.5 3.8 1.6
2020-Jan-12 22:00N 47°36' W 122°18'0 0.0 060 / 5998.7 3.3 1.4
2020-Jan-12 21:00N 47°36' W 122°18'0 0.0 220 / 6997.6 6.4 2.7
2020-Jan-12 20:00N 47°36' W 122°18'0 0.0 240 / 11997.8 6.2 3.1
2020-Jan-12 19:00N 47°36' W 122°18'0 0.0 170 / 10998.5 6.3 3.3
2020-Jan-12 18:00N 47°36' W 122°18'0 0.0 180 / 10998.3 6.4 3.6
2020-Jan-12 17:00N 47°36' W 122°18'0 0.0 170 / 16999.0 6.4 3.8
2020-Jan-12 16:00N 47°36' W 122°18'0 0.0 180 / 10999.6 5.7 3.8
2020-Jan-12 15:00N 47°36' W 122°18'0 0.0 180 / 111000.4 5.6 3.3
2020-Jan-12 14:00N 47°36' W 122°18'0 0.0 180 / 101001.9 5.8 3.3
2020-Jan-12 13:00N 47°36' W 122°18'0 0.0 170 / 91003.0 5.5 2.5
2020-Jan-12 12:00N 47°36' W 122°18'0 0.0 160 / 101004.8 5.0 2.6
2020-Jan-12 11:00N 47°36' W 122°18'0 0.0 180 / 121006.4 4.9 2.2
2020-Jan-12 10:00N 47°36' W 122°18'0 0.0 200 / 101007.5 5.1 2.8
2020-Jan-12 09:00N 47°36' W 122°18'0 0.0 170 / 111008.1 5.1 2.7
2020-Jan-12 08:00N 47°36' W 122°18'0 0.0 180 / 111009.3 4.7 2.7
2020-Jan-12 07:00N 47°36' W 122°18'0 0.0 190 / 91010.7 4.8 2.7
2020-Jan-12 06:00N 47°36' W 122°18'0 0.0 190 / 91011.8 5.5 2.7
2020-Jan-12 05:00N 47°36' W 122°18'0 0.0 180 / 81012.3 6.1 3.1
2020-Jan-12 04:00N 47°36' W 122°18'0 0.0 190 / 51012.9 5.6 1.9
2020-Jan-12 03:00N 47°36' W 122°18'0 0.0 190 / 91013.3 6.4 1.8
2020-Jan-12 02:00N 47°36' W 122°18'0 0.0 190 / 71013.1 7.0 1.6
2020-Jan-12 01:00N 47°36' W 122°18'0 0.0 220 / 61012.8 7.2 0.6
2020-Jan-12 00:00N 47°36' W 122°18'0 0.0 200 / 91012.0 7.5-0.1
2020-Jan-11 23:00N 47°36' W 122°18'0 0.0 180 / 91011.1 7.7 0.3
2020-Jan-11 22:00N 47°36' W 122°18'0 0.0 220 / 91010.6 7.5 2.4
2020-Jan-11 21:00N 47°36' W 122°18'0 0.0 180 / 61010.4 7.5 4.5
2020-Jan-11 20:00N 47°36' W 122°18'0 0.0 180 / 61010.4 7.3 4.7
2020-Jan-11 19:00N 47°36' W 122°18'0 0.0 130 / 21009.9 7.1 5.8
2020-Jan-11 18:00N 47°36' W 122°18'0 0.0 020 / 51009.2 7.3 5.4
2020-Jan-11 17:00N 47°36' W 122°18'332.2 280 / 11007.4 7.1 6.6
2020-Jan-11 16:54N 47°39' W 122°19'3 3.3
2020-Jan-11 16:00N 47°36' W 122°18'0 0.0 130 1005.9 7.4 6.0
2020-Jan-11 15:00N 47°36' W 122°18'0 0.0 020 / 21004.2 7.1 6.6
2020-Jan-11 14:00N 47°36' W 122°18'0 0.0 310 / 21003.0 7.5 6.5
2020-Jan-11 13:00N 47°36' W 122°18'0 0.0 220 / 21001.4 7.4 5.9
2020-Jan-11 12:00N 47°36' W 122°18'0 0.0 170 / 101000.3 6.9 5.1
2020-Jan-11 11:00N 47°36' W 122°18'0 0.0 160 / 12999.9 7.1 4.6
2020-Jan-11 10:00N 47°36' W 122°18'0 0.0 150 / 101000.1 7.1 4.6
2020-Jan-11 09:00N 47°36' W 122°18'0 0.0 160 / 121000.0 7.1 4.6
2020-Jan-11 08:00N 47°36' W 122°18'0 0.0 180 / 131000.5 7.3 4.9
2020-Jan-11 07:00N 47°36' W 122°18'0 0.0 160 / 121000.5 7.3 4.9
2020-Jan-11 06:00N 47°36' W 122°18'0 0.0 160 / 81000.8 7.3 4.9
2020-Jan-11 05:00N 47°36' W 122°18'0 0.0 150 / 61001.2 7.1 5.0
2020-Jan-11 04:00N 47°36' W 122°18'0 0.0 150 / 61001.4 7.3 5.1
2020-Jan-11 03:00N 47°36' W 122°18'0 0.0 130 / 51001.5 7.1 5.4
2020-Jan-11 02:00N 47°36' W 122°18'0 0.0 140 / 71001.7 6.9 5.1
2020-Jan-11 01:00N 47°36' W 122°18'0 0.0 130 / 71002.8 6.7 5.1
2020-Jan-11 00:00N 47°36' W 122°18'0 0.0 150 / 91003.7 6.8 5.1
2020-Jan-10 23:00N 47°36' W 122°18'0 0.0 160 / 111003.4 7.4 4.7
2020-Jan-10 22:00N 47°36' W 122°18'0 0.0 170 / 201002.7 7.2 4.3
2020-Jan-10 21:00N 47°36' W 122°18'0 0.0 160 / 61004.1 6.4 4.4
2020-Jan-10 20:00N 47°36' W 122°18'0 0.0 120 / 31005.0 5.5 4.2
2020-Jan-10 19:00N 47°36' W 122°18'0 0.0 120 / 31006.9 4.9 3.6
2020-Jan-10 18:00N 47°36' W 122°18'0 0.0 110 / 31008.8 4.4 3.4
2020-Jan-10 17:00N 47°36' W 122°18'0 0.0 110 / 21010.1 4.1 2.7
2020-Jan-10 16:00N 47°36' W 122°18'0 0.0 140 / 11011.5 4.0 1.7
2020-Jan-10 15:00N 47°36' W 122°18'0 0.0 130 / 31013.5 4.3 0.7
2020-Jan-10 14:00N 47°36' W 122°18'0 0.0 130 / 41015.5 4.0 1.0
2020-Jan-10 13:00N 47°36' W 122°18'3 6.1 120 / 41017.3 3.4 1.4
2020-Jan-10 12:30N 47°39' W 122°19'3 6.0
2020-Jan-10 12:00N 47°36' W 122°18'0 0.0 110 / 41018.7 3.3 1.6
2020-Jan-10 11:00N 47°36' W 122°18'0 0.0 140 / 41020.1 3.5 1.6
2020-Jan-10 10:00N 47°36' W 122°18'0 0.0 130 / 31020.9 3.7 1.7
2020-Jan-10 09:00N 47°36' W 122°18'0 0.0 130 / 31021.7 3.2 1.1
2020-Jan-10 08:00N 47°36' W 122°18'0 0.0 130 / 21022.5 2.9 1.0
2020-Jan-10 07:00N 47°36' W 122°18'315.6 140 / 31023.1 2.7 1.3
2020-Jan-10 06:48N 47°39' W 122°19'0 0.0
2020-Jan-10 06:15N 47°39' W 122°19'311.8
2020-Jan-10 06:00N 47°36' W 122°18'0 0.0 110 / 21023.2 3.0 1.1
2020-Jan-10 05:00N 47°36' W 122°18'0 0.0 110 / 21023.0 3.0 1.4
2020-Jan-10 04:00N 47°36' W 122°18'0 0.0 150 / 21023.4 3.1 1.7
2020-Jan-10 03:00N 47°36' W 122°18'0 0.0 110 / 21023.4 3.8 1.9
2020-Jan-10 02:00N 47°36' W 122°18'0 0.0 160 / 31023.9 3.9 1.5
2020-Jan-10 01:00N 47°36' W 122°18'0 0.0 140 / 11023.6 4.1 1.9
2020-Jan-10 00:00N 47°36' W 122°18'0 0.0 160 / 31023.4 4.4 0.4
2020-Jan-09 23:00N 47°36' W 122°18'0 0.0 130 / 21022.8 4.7 1.9
2020-Jan-09 22:00N 47°36' W 122°18'0 0.0 140 / 21022.1 5.3 1.1
2020-Jan-09 21:00N 47°36' W 122°18'0 0.0 110 / 21021.8 4.7 2.5
2020-Jan-09 20:00N 47°36' W 122°18'0 0.0 130 / 21022.0 4.0 2.2
2020-Jan-09 19:00N 47°36' W 122°18'0 0.0 130 / 21022.0 3.1 1.8
2020-Jan-09 18:00N 47°36' W 122°18'3 3.2 170 / 31021.6 2.7 1.6
2020-Jan-09 17:04N 47°39' W 122°19'344.5
2020-Jan-09 17:00N 47°36' W 122°18'0 0.0 100 / 21020.8 3.2 1.9
2020-Jan-09 16:00N 47°36' W 122°18'0 0.0 140 / 21019.8 3.0 1.6
2020-Jan-09 15:00N 47°36' W 122°18'   180 / 31018.9 3.0 1.8
Track history (hours):
 
Tides and Currents Weather Stations Pressure Air Temp Water Temp Dewpoint Dewpoint Depression Visibility Wind Speed Wind Dir Waves Ship Positions

Oceanographic research ship Sikuliaq (USA)

Owner: Mackay Communications, Raleigh, NC. More information available from US FCC via Universal Licensing System.

Last reported at 2020-Jan-19 15:00 UTC. Time now 2020-Jan-19 16:44 UTC.
Position N 47°36' W 122°18'.

Length 80 m; draft 6 m.

Type: Other ship. MMSI: 338417000.

Wind from 140 at 1 knots

Barometer 1022.6 mb
Air temperature 7.3 ° C
Dewpoint 4.3 ° C

Date/timePositionNaut miles runAvg speedWind from/ knotsBaromVisibWave heightAir tempDewpointWater temp
2020-Jan-19 15:00N 47°36' W 122°18'0 0.0 140 / 11022.6 7.3 4.3
2020-Jan-19 14:00N 47°36' W 122°18'0 0.0 180 / 21022.9 7.8 3.5
2020-Jan-19 13:00N 47°36' W 122°18'0 0.0 150 / 21023.2 7.5 4.8
2020-Jan-19 12:00N 47°36' W 122°18'0 0.0 080 / 11023.9 7.3 4.5
2020-Jan-19 11:00N 47°36' W 122°18'0 0.0 160 / 21024.1 7.3 4.5
2020-Jan-19 10:00N 47°36' W 122°18'0 0.0 130 / 11024.3 6.9 4.4
2020-Jan-19 09:00N 47°36' W 122°18'0 0.0 150 / 21024.3 7.5 3.6
2020-Jan-19 08:00N 47°36' W 122°18'0 0.0 150 / 11024.6 7.9 3.0
2020-Jan-19 07:00N 47°36' W 122°18'0 0.0 120 / 31024.4 8.2 2.6
2020-Jan-19 06:00N 47°36' W 122°18'0 0.0 120 / 31024.3 8.9 2.5
2020-Jan-19 05:00N 47°36' W 122°18'0 0.0 130 / 21023.9 9.2 3.1
2020-Jan-19 04:00N 47°36' W 122°18'0 0.0 150 / 51023.7 9.3 3.5
2020-Jan-19 03:00N 47°36' W 122°18'0 0.0 150 / 31023.2 9.3 4.4
2020-Jan-19 02:00N 47°36' W 122°18'0 0.0 140 / 11022.7 9.5 5.7
2020-Jan-19 01:00N 47°36' W 122°18'0 0.0 140 / 21022.0 10.3 5.0
2020-Jan-19 00:00N 47°36' W 122°18'0 0.0 150 / 31021.4 10.8 5.3
2020-Jan-18 23:00N 47°36' W 122°18'0 0.0 170 / 91021.0 11.0 5.1
2020-Jan-18 22:00N 47°36' W 122°18'0 0.0 140 / 21020.6 9.2 5.8
2020-Jan-18 21:00N 47°36' W 122°18'0 0.0 100 / 51020.2 9.0 4.4
2020-Jan-18 20:00N 47°36' W 122°18'0 0.0 130 / 21020.1 7.4 4.4
2020-Jan-18 19:00N 47°36' W 122°18'0 0.0 130 / 21020.2 6.3 4.2
2020-Jan-18 18:00N 47°36' W 122°18'0 0.0 140 / 21019.5 5.1 3.9
2020-Jan-18 17:00N 47°36' W 122°18'0 0.0 120 / 21018.7 5.0 3.9
2020-Jan-18 16:00N 47°36' W 122°18'0 0.0 110 / 21017.9 5.0 3.9
2020-Jan-18 15:00N 47°36' W 122°18'3 8.8 100 / 41017.3 4.9 4.0
2020-Jan-18 14:39N 47°39' W 122°19'3 4.6
2020-Jan-18 14:00N 47°36' W 122°18'0 0.0 120 / 31017.0 5.1 4.0
2020-Jan-18 13:00N 47°36' W 122°18'0 0.0 110 / 11016.9 5.0 4.0
2020-Jan-18 12:00N 47°36' W 122°18'0 0.0 110 / 31016.8 4.9 3.7
2020-Jan-18 11:00N 47°36' W 122°18'0 0.0 110 / 61017.2 5.3 2.9
2020-Jan-18 10:00N 47°36' W 122°18'0 0.0 150 / 41017.9 4.5 2.4
2020-Jan-18 09:00N 47°36' W 122°18'0 0.0 130 / 31018.0 4.7 1.4
2020-Jan-18 08:00N 47°36' W 122°18'0 0.0 160 / 41018.8 5.2 0.5
2020-Jan-18 07:00N 47°36' W 122°18'0 0.0 130 / 11018.9 5.4-0.3
2020-Jan-18 06:00N 47°36' W 122°18'0 0.0 140 / 11019.1 5.2-0.5
2020-Jan-18 05:00N 47°36' W 122°18'0 0.0 130 / 11019.8 5.4-0.6
2020-Jan-18 04:00N 47°36' W 122°18'0 0.0 110 / 21020.1 5.5-0.6
2020-Jan-18 03:00N 47°36' W 122°18'0 0.0 120 / 21020.6 5.5 0.5
2020-Jan-18 02:00N 47°36' W 122°18'0 0.0 120 / 21021.0 5.5 0.7
2020-Jan-18 01:00N 47°36' W 122°18'0 0.0 120 / 21021.5 5.3 0.5
2020-Jan-18 00:00N 47°36' W 122°18'0 0.0 140 / 31021.5 5.4 0.3
2020-Jan-17 23:00N 47°36' W 122°18'0 0.0 120 / 31021.1 5.6-0.7
2020-Jan-17 22:00N 47°36' W 122°18'0 0.0 140 / 41020.8 5.5-1.8
2020-Jan-17 21:00N 47°36' W 122°18'0 0.0 110 / 31021.0 4.9-0.9
2020-Jan-17 20:00N 47°36' W 122°18'0 0.0 110 / 21020.9 4.5-0.9
2020-Jan-17 19:00N 47°36' W 122°18'3 5.6 140 / 21021.1 4.2 0.8
2020-Jan-17 18:27N 47°39' W 122°19'3 6.7
2020-Jan-17 18:00N 47°36' W 122°18'3 6.1 100 / 21020.3 3.7 1.0
2020-Jan-17 17:30N 47°39' W 122°19'3 6.0
2020-Jan-17 17:00N 47°36' W 122°18'0 0.0 150 / 31019.6 2.6 1.1
2020-Jan-17 16:00N 47°36' W 122°18'0 0.0 200 / 21018.8 2.6 0.9
2020-Jan-17 15:00N 47°36' W 122°18'368.6 170 / 21018.2 2.3 0.4
2020-Jan-17 14:57N 47°39' W 122°19'3 3.2
2020-Jan-17 14:00N 47°36' W 122°18'0 0.0 200 / 11017.4 2.3 0.7
2020-Jan-17 13:00N 47°36' W 122°18'0 0.0 170 / 31016.7 1.7 0.5
2020-Jan-17 12:00N 47°36' W 122°18'0 0.0 230 / 11015.7 2.5 0.6
2020-Jan-17 11:00N 47°36' W 122°18'0 0.0 150 / 51014.7 2.4 0.6
2020-Jan-17 10:00N 47°36' W 122°18'0 0.0 120 / 21013.7 2.9 0.7
2020-Jan-17 09:00N 47°36' W 122°18'3 4.4 160 / 51012.6 3.0 0.9
2020-Jan-17 08:18N 47°39' W 122°19'3 9.9
2020-Jan-17 08:00N 47°36' W 122°18'0 0.0 150 / 41011.7 2.8 0.8
2020-Jan-17 07:00N 47°36' W 122°18'0 0.0 150 / 31010.7 3.4 1.0
2020-Jan-17 06:00N 47°36' W 122°18'0 0.0 170 / 71009.6 3.4 0.9
2020-Jan-17 05:00N 47°36' W 122°18'0 0.0 160 / 51008.8 3.6 0.7
2020-Jan-17 04:00N 47°36' W 122°18'0 0.0 170 / 81008.3 4.0-0.0
2020-Jan-17 03:00N 47°36' W 122°18'0 0.0 140 / 21007.4 4.4 0.1
2020-Jan-17 02:00N 47°36' W 122°18'0 0.0 270 / 11006.9 3.9 0.4
2020-Jan-17 01:00N 47°36' W 122°18'0 0.0 220 / 101006.1 6.1-1.7
2020-Jan-17 00:00N 47°36' W 122°18'0 0.0 210 / 51005.3 6.7-3.1
2020-Jan-16 23:00N 47°36' W 122°18'0 0.0 220 / 71004.8 7.3-3.6
2020-Jan-16 22:00N 47°36' W 122°18'0 0.0 200 / 81004.4 7.2-2.7
2020-Jan-16 21:00N 47°36' W 122°18'0 0.0 210 / 51004.4 6.7-2.9
2020-Jan-16 20:00N 47°36' W 122°18'0 0.0 190 / 91004.5 6.5-0.9
2020-Jan-16 19:00N 47°36' W 122°18'0 0.0 150 / 41005.1 5.6 1.7
2020-Jan-16 18:00N 47°36' W 122°18'0 0.0 150 / 61004.0 4.5 1.2
2020-Jan-16 17:00N 47°36' W 122°18'0 0.0 140 / 61003.1 3.8 1.3
2020-Jan-16 16:00N 47°36' W 122°18'0 0.0 140 / 41003.0 3.6 1.3
2020-Jan-16 15:00N 47°36' W 122°18'0 0.0 130 / 41002.1 4.0 1.9
2020-Jan-16 14:00N 47°36' W 122°18'0 0.0 130 / 21001.8 4.1 1.0
2020-Jan-16 13:00N 47°36' W 122°18'0 0.0 130 / 31001.2 4.4-0.3
2020-Jan-16 12:00N 47°36' W 122°18'0 0.0 140 / 41001.1 4.6 0.5
2020-Jan-16 11:00N 47°36' W 122°18'0 0.0 150 / 21000.8 5.5-1.5
2020-Jan-16 10:00N 47°36' W 122°18'0 0.0 150 / 21000.0 5.7-1.4
2020-Jan-16 09:00N 47°36' W 122°18'0 0.0 140 / 3999.2 5.8-1.3
2020-Jan-16 08:00N 47°36' W 122°18'0 0.0 150 / 5998.8 6.4-2.7
2020-Jan-16 07:00N 47°36' W 122°18'0 0.0 150 / 4997.7 6.2-3.3
2020-Jan-16 06:00N 47°36' W 122°18'0 0.0 130 / 4996.5 6.5-3.0
2020-Jan-16 05:00N 47°36' W 122°18'0 0.0 130 / 4995.8 6.3-3.6
2020-Jan-16 04:00N 47°36' W 122°18'0 0.0 110 / 5995.5 5.8-4.1
2020-Jan-16 03:00N 47°36' W 122°18'0 0.0 130 / 5995.7 5.8-4.7
2020-Jan-16 02:00N 47°36' W 122°18'0 0.0 140 / 4995.8 5.4-4.3
2020-Jan-16 01:00N 47°36' W 122°18'0 0.0 100 / 7995.3 4.6-3.9
2020-Jan-16 00:00N 47°36' W 122°18'3 6.1 130 / 6996.4 3.6-2.4
2020-Jan-15 23:30N 47°39' W 122°19'3 6.0
2020-Jan-15 23:00N 47°36' W 122°18'3 3.2 110 / 6998.4 1.3-0.1
2020-Jan-15 22:03N 47°39' W 122°19'354.2
2020-Jan-15 22:00N 47°36' W 122°18'0 0.0 110 / 81000.6 1.8-1.2
2020-Jan-15 21:00N 47°36' W 122°18'0 0.0 110 / 141001.9 4.6-6.2
2020-Jan-15 20:00N 47°36' W 122°18'3 6.8 110 / 41004.5 3.2-6.0
2020-Jan-15 19:33N 47°39' W 122°19'3 5.5
2020-Jan-15 19:00N 47°36' W 122°18'0 0.0 130 / 21007.1 3.0-5.4
2020-Jan-15 18:00N 47°36' W 122°18'321.0 100 / 81007.9 2.5-8.2
2020-Jan-15 17:51N 47°39' W 122°19'3 3.5
2020-Jan-15 17:00N 47°36' W 122°18'0 0.0 130 / 41009.4 2.6-7.1
2020-Jan-15 16:00N 47°36' W 122°18'0 0.0 120 / 31010.2 1.9-5.3
2020-Jan-15 15:00N 47°36' W 122°18'0 0.0 100 / 41010.9 3.4-5.8
2020-Jan-15 14:00N 47°36' W 122°18'0 0.0 140 / 71011.7 3.6-5.9
2020-Jan-15 13:00N 47°36' W 122°18'0 0.0 140 / 61012.4 3.5-4.9
2020-Jan-15 12:00N 47°36' W 122°18'0 0.0 120 / 41013.2 3.1-4.4
2020-Jan-15 11:00N 47°36' W 122°18'0 0.0 150 / 51014.0 3.0-4.1
2020-Jan-15 10:00N 47°36' W 122°18'0 0.0 160 / 101014.2 2.8-4.6
2020-Jan-15 09:00N 47°36' W 122°18'0 0.0 160 / 91014.5 2.7-3.9
2020-Jan-15 08:00N 47°36' W 122°18'0 0.0 160 / 121014.4 2.7-3.5
2020-Jan-15 07:00N 47°36' W 122°18'0 0.0 160 / 121014.2 3.0-2.9
2020-Jan-15 06:00N 47°36' W 122°18'0 0.0 160 / 81014.1 2.5-2.3
2020-Jan-15 05:00N 47°36' W 122°18'0 0.0 150 / 81014.0 1.8-2.2
2020-Jan-15 04:00N 47°36' W 122°18'0 0.0 130 / 41014.7 1.5-1.2
2020-Jan-15 03:00N 47°36' W 122°18'0 0.0 150 / 61015.0 1.7-1.9
2020-Jan-15 02:00N 47°36' W 122°18'0 0.0 130 / 31015.0 1.3-3.0
2020-Jan-15 01:00N 47°36' W 122°18'0 0.0 120 / 11015.4 -0.0-3.5
2020-Jan-15 00:00N 47°36' W 122°18'321.0 110 / 71015.4 -0.3-4.0
2020-Jan-14 23:51N 47°39' W 122°19'3 3.5
2020-Jan-14 23:00N 47°36' W 122°18'0 0.0 130 / 21015.0 -0.2-3.7
2020-Jan-14 22:00N 47°36' W 122°18'3 4.1 120 / 31014.4 -0.7-3.2
2020-Jan-14 21:15N 47°39' W 122°19'0 0.0
2020-Jan-14 21:00N 47°39' W 122°19'3545.0
2020-Jan-14 21:00N 47°36' W 122°18'0 0.0 020 / 21013.7 -1.3-4.1
2020-Jan-14 20:00N 47°36' W 122°18'3 5.1 340 / 31013.2 -1.4-4.0
2020-Jan-14 19:24N 47°39' W 122°19'3 7.5
2020-Jan-14 19:00N 47°36' W 122°18'3 5.6 220 / 11012.8 -1.5-3.9
2020-Jan-14 18:27N 47°39' W 122°19'3 6.6
2020-Jan-14 18:00N 47°36' W 122°18'315.6 350 / 31011.9 -1.7-3.8
2020-Jan-14 17:48N 47°39' W 122°19'0 0.0
2020-Jan-14 17:27N 47°39' W 122°19'0 0.0
2020-Jan-14 17:00N 47°39' W 122°19'3545.0
2020-Jan-14 17:00N 47°36' W 122°18'0 0.0 1011.0 -1.5-3.8
2020-Jan-14 16:00N 47°36' W 122°18'0 0.0 040 / 41010.4 -1.5-4.1
2020-Jan-14 15:00N 47°36' W 122°18'0 0.0 020 / 41010.2 -1.8-4.5
2020-Jan-14 14:00N 47°36' W 122°18'3 6.1 220 / 11010.0 -1.7-4.2
2020-Jan-14 13:30N 47°39' W 122°19'3 6.0
2020-Jan-14 13:00N 47°36' W 122°18'0 0.0 050 / 11009.7 -1.7-4.1
2020-Jan-14 12:00N 47°36' W 122°18'315.6 350 / 41009.9 -1.8-4.1
2020-Jan-14 11:48N 47°39' W 122°19'0 0.0
2020-Jan-14 11:18N 47°39' W 122°19'0 0.0
2020-Jan-14 11:00N 47°39' W 122°19'3545.0
2020-Jan-14 11:00N 47°36' W 122°18'3 3.0 1009.9 -1.7-4.0
2020-Jan-14 10:00N 47°39' W 122°19'3545.0
2020-Jan-14 10:00N 47°36' W 122°18'0 0.0 030 / 41009.4 -1.9-3.8
2020-Jan-14 09:00N 47°36' W 122°18'0 0.0 040 / 21009.1 -1.4-3.5
2020-Jan-14 08:00N 47°36' W 122°18'3 3.0 020 / 31009.4 -1.4-3.4
2020-Jan-14 07:00N 47°39' W 122°19'3545.0
2020-Jan-14 07:00N 47°36' W 122°18'0 0.0 010 / 51009.2 -1.4-3.3
2020-Jan-14 06:00N 47°36' W 122°18'3 6.1 350 / 31009.1 -1.0-3.1
2020-Jan-14 05:30N 47°39' W 122°19'3 6.0
2020-Jan-14 05:00N 47°36' W 122°18'0 0.0 010 / 31009.0 -0.9-2.8
2020-Jan-14 04:00N 47°36' W 122°18'0 0.0 010 / 31009.1 -0.6-3.1
2020-Jan-14 03:00N 47°36' W 122°18'0 0.0 310 / 61008.8 -0.4-2.9
2020-Jan-14 02:00N 47°36' W 122°18'0 0.0 360 / 41008.9 -0.0-3.0
2020-Jan-14 01:00N 47°36' W 122°18'0 0.0 350 / 41009.1 0.4-1.9
2020-Jan-14 00:00N 47°36' W 122°18'0 0.0 340 / 71009.1 0.8-1.2
2020-Jan-13 23:00N 47°36' W 122°18'0 0.0 360 / 71008.9 0.9-0.1
2020-Jan-13 22:00N 47°36' W 122°18'0 0.0 270 / 11009.0 1.4 0.5
2020-Jan-13 21:00N 47°36' W 122°18'0 0.0 100 / 21009.5 1.6 0.4
2020-Jan-13 20:00N 47°36' W 122°18'0 0.0 330 / 21010.2 1.3 0.3
2020-Jan-13 19:00N 47°36' W 122°18'0 0.0 020 / 41010.6 1.3-0.4
2020-Jan-13 18:00N 47°36' W 122°18'0 0.0 260 / 61010.4 1.4-0.7
2020-Jan-13 17:00N 47°36' W 122°18'0 0.0 280 / 51010.1 1.2-1.2
2020-Jan-13 16:00N 47°36' W 122°18'0 0.0 300 / 51009.7 1.1-1.2
2020-Jan-13 15:00N 47°36' W 122°18'0 0.0 290 / 11009.8 0.9-0.9
2020-Jan-13 14:00N 47°36' W 122°18'0 0.0 200 / 11009.7 0.6-0.2
2020-Jan-13 13:00N 47°36' W 122°18'0 0.0 250 / 31009.9 0.6-0.7
2020-Jan-13 12:00N 47°36' W 122°18'0 0.0 160 / 61009.5 1.3-1.4
2020-Jan-13 11:00N 47°36' W 122°18'0 0.0 160 / 31009.2 0.9-0.2
2020-Jan-13 10:00N 47°36' W 122°18'0 0.0 090 / 11008.5 0.9 0.2
2020-Jan-13 09:00N 47°36' W 122°18'0 0.0 160 / 31007.5 0.8-0.1
2020-Jan-13 08:00N 47°36' W 122°18'0 0.0 170 / 31006.9 0.9 0.2
2020-Jan-13 07:00N 47°36' W 122°18'0 0.0 220 / 21006.0 0.7-0.3
2020-Jan-13 06:00N 47°36' W 122°18'0 0.0 020 / 31005.2 1.2-0.3
2020-Jan-13 05:00N 47°36' W 122°18'0 0.0 190 / 61003.6 3.3-2.4
2020-Jan-13 04:00N 47°36' W 122°18'0 0.0 180 / 61002.5 3.7-2.6
2020-Jan-13 03:00N 47°36' W 122°18'0 0.0 180 / 61001.4 4.1-1.3
2020-Jan-13 02:00N 47°36' W 122°18'0 0.0 180 / 51000.4 4.4-0.0
2020-Jan-13 01:00N 47°36' W 122°18'0 0.0 200 / 10999.9 5.0-0.9
2020-Jan-13 00:00N 47°36' W 122°18'0 0.0 110 / 3999.7 5.2 2.1
2020-Jan-12 23:00N 47°36' W 122°18'0 0.0 100 / 5999.5 3.8 1.6
2020-Jan-12 22:00N 47°36' W 122°18'0 0.0 060 / 5998.7 3.3 1.4
2020-Jan-12 21:00N 47°36' W 122°18'0 0.0 220 / 6997.6 6.4 2.7
2020-Jan-12 20:00N 47°36' W 122°18'0 0.0 240 / 11997.8 6.2 3.1
2020-Jan-12 19:00N 47°36' W 122°18'0 0.0 170 / 10998.5 6.3 3.3
2020-Jan-12 18:00N 47°36' W 122°18'0 0.0 180 / 10998.3 6.4 3.6
2020-Jan-12 17:00N 47°36' W 122°18'0 0.0 170 / 16999.0 6.4 3.8
2020-Jan-12 16:00N 47°36' W 122°18'0 0.0 180 / 10999.6 5.7 3.8
2020-Jan-12 15:00N 47°36' W 122°18'0 0.0 180 / 111000.4 5.6 3.3
2020-Jan-12 14:00N 47°36' W 122°18'0 0.0 180 / 101001.9 5.8 3.3
2020-Jan-12 13:00N 47°36' W 122°18'0 0.0 170 / 91003.0 5.5 2.5
2020-Jan-12 12:00N 47°36' W 122°18'0 0.0 160 / 101004.8 5.0 2.6
2020-Jan-12 11:00N 47°36' W 122°18'0 0.0 180 / 121006.4 4.9 2.2
2020-Jan-12 10:00N 47°36' W 122°18'0 0.0 200 / 101007.5 5.1 2.8
2020-Jan-12 09:00N 47°36' W 122°18'0 0.0 170 / 111008.1 5.1 2.7
2020-Jan-12 08:00N 47°36' W 122°18'0 0.0 180 / 111009.3 4.7 2.7
2020-Jan-12 07:00N 47°36' W 122°18'0 0.0 190 / 91010.7 4.8 2.7
2020-Jan-12 06:00N 47°36' W 122°18'0 0.0 190 / 91011.8 5.5 2.7
2020-Jan-12 05:00N 47°36' W 122°18'0 0.0 180 / 81012.3 6.1 3.1
2020-Jan-12 04:00N 47°36' W 122°18'0 0.0 190 / 51012.9 5.6 1.9
2020-Jan-12 03:00N 47°36' W 122°18'0 0.0 190 / 91013.3 6.4 1.8
2020-Jan-12 02:00N 47°36' W 122°18'0 0.0 190 / 71013.1 7.0 1.6
2020-Jan-12 01:00N 47°36' W 122°18'0 0.0 220 / 61012.8 7.2 0.6
2020-Jan-12 00:00N 47°36' W 122°18'0 0.0 200 / 91012.0 7.5-0.1
2020-Jan-11 23:00N 47°36' W 122°18'0 0.0 180 / 91011.1 7.7 0.3
2020-Jan-11 22:00N 47°36' W 122°18'0 0.0 220 / 91010.6 7.5 2.4
2020-Jan-11 21:00N 47°36' W 122°18'0 0.0 180 / 61010.4 7.5 4.5
2020-Jan-11 20:00N 47°36' W 122°18'0 0.0 180 / 61010.4 7.3 4.7
2020-Jan-11 19:00N 47°36' W 122°18'0 0.0 130 / 21009.9 7.1 5.8
2020-Jan-11 18:00N 47°36' W 122°18'0 0.0 020 / 51009.2 7.3 5.4
2020-Jan-11 17:00N 47°36' W 122°18'332.2 280 / 11007.4 7.1 6.6
2020-Jan-11 16:54N 47°39' W 122°19'3 3.3
2020-Jan-11 16:00N 47°36' W 122°18'0 0.0 130 1005.9 7.4 6.0
2020-Jan-11 15:00N 47°36' W 122°18'0 0.0 020 / 21004.2 7.1 6.6
2020-Jan-11 14:00N 47°36' W 122°18'0 0.0 310 / 21003.0 7.5 6.5
2020-Jan-11 13:00N 47°36' W 122°18'0 0.0 220 / 21001.4 7.4 5.9
2020-Jan-11 12:00N 47°36' W 122°18'0 0.0 170 / 101000.3 6.9 5.1
2020-Jan-11 11:00N 47°36' W 122°18'0 0.0 160 / 12999.9 7.1 4.6
2020-Jan-11 10:00N 47°36' W 122°18'0 0.0 150 / 101000.1 7.1 4.6
2020-Jan-11 09:00N 47°36' W 122°18'0 0.0 160 / 121000.0 7.1 4.6
2020-Jan-11 08:00N 47°36' W 122°18'0 0.0 180 / 131000.5 7.3 4.9
2020-Jan-11 07:00N 47°36' W 122°18'0 0.0 160 / 121000.5 7.3 4.9
2020-Jan-11 06:00N 47°36' W 122°18'0 0.0 160 / 81000.8 7.3 4.9
2020-Jan-11 05:00N 47°36' W 122°18'0 0.0 150 / 61001.2 7.1 5.0
2020-Jan-11 04:00N 47°36' W 122°18'0 0.0 150 / 61001.4 7.3 5.1
2020-Jan-11 03:00N 47°36' W 122°18'0 0.0 130 / 51001.5 7.1 5.4
2020-Jan-11 02:00N 47°36' W 122°18'0 0.0 140 / 71001.7 6.9 5.1
2020-Jan-11 01:00N 47°36' W 122°18'0 0.0 130 / 71002.8 6.7 5.1
2020-Jan-11 00:00N 47°36' W 122°18'0 0.0 150 / 91003.7 6.8 5.1
2020-Jan-10 23:00N 47°36' W 122°18'0 0.0 160 / 111003.4 7.4 4.7
2020-Jan-10 22:00N 47°36' W 122°18'0 0.0 170 / 201002.7 7.2 4.3
2020-Jan-10 21:00N 47°36' W 122°18'0 0.0 160 / 61004.1 6.4 4.4
2020-Jan-10 20:00N 47°36' W 122°18'0 0.0 120 / 31005.0 5.5 4.2
2020-Jan-10 19:00N 47°36' W 122°18'0 0.0 120 / 31006.9 4.9 3.6
2020-Jan-10 18:00N 47°36' W 122°18'0 0.0 110 / 31008.8 4.4 3.4
2020-Jan-10 17:00N 47°36' W 122°18'0 0.0 110 / 21010.1 4.1 2.7
2020-Jan-10 16:00N 47°36' W 122°18'0 0.0 140 / 11011.5 4.0 1.7
2020-Jan-10 15:00N 47°36' W 122°18'0 0.0 130 / 31013.5 4.3 0.7
2020-Jan-10 14:00N 47°36' W 122°18'0 0.0 130 / 41015.5 4.0 1.0
2020-Jan-10 13:00N 47°36' W 122°18'3 6.1 120 / 41017.3 3.4 1.4
2020-Jan-10 12:30N 47°39' W 122°19'3 6.0
2020-Jan-10 12:00N 47°36' W 122°18'0 0.0 110 / 41018.7 3.3 1.6
2020-Jan-10 11:00N 47°36' W 122°18'0 0.0 140 / 41020.1 3.5 1.6
2020-Jan-10 10:00N 47°36' W 122°18'0 0.0 130 / 31020.9 3.7 1.7
2020-Jan-10 09:00N 47°36' W 122°18'0 0.0 130 / 31021.7 3.2 1.1
2020-Jan-10 08:00N 47°36' W 122°18'0 0.0 130 / 21022.5 2.9 1.0
2020-Jan-10 07:00N 47°36' W 122°18'315.6 140 / 31023.1 2.7 1.3
2020-Jan-10 06:48N 47°39' W 122°19'0 0.0
2020-Jan-10 06:15N 47°39' W 122°19'311.8
2020-Jan-10 06:00N 47°36' W 122°18'0 0.0 110 / 21023.2 3.0 1.1
2020-Jan-10 05:00N 47°36' W 122°18'0 0.0 110 / 21023.0 3.0 1.4
2020-Jan-10 04:00N 47°36' W 122°18'0 0.0 150 / 21023.4 3.1 1.7
2020-Jan-10 03:00N 47°36' W 122°18'0 0.0 110 / 21023.4 3.8 1.9
2020-Jan-10 02:00N 47°36' W 122°18'0 0.0 160 / 31023.9 3.9 1.5
2020-Jan-10 01:00N 47°36' W 122°18'0 0.0 140 / 11023.6 4.1 1.9
2020-Jan-10 00:00N 47°36' W 122°18'0 0.0 160 / 31023.4 4.4 0.4
2020-Jan-09 23:00N 47°36' W 122°18'0 0.0 130 / 21022.8 4.7 1.9
2020-Jan-09 22:00N 47°36' W 122°18'0 0.0 140 / 21022.1 5.3 1.1
2020-Jan-09 21:00N 47°36' W 122°18'0 0.0 110 / 21021.8 4.7 2.5
2020-Jan-09 20:00N 47°36' W 122°18'0 0.0 130 / 21022.0 4.0 2.2
2020-Jan-09 19:00N 47°36' W 122°18'0 0.0 130 / 21022.0 3.1 1.8
2020-Jan-09 18:00N 47°36' W 122°18'3 3.2 170 / 31021.6 2.7 1.6
2020-Jan-09 17:04N 47°39' W 122°19'344.5
2020-Jan-09 17:00N 47°36' W 122°18'0 0.0 100 / 21020.8 3.2 1.9
2020-Jan-09 16:00N 47°36' W 122°18'0 0.0 140 / 21019.8 3.0 1.6
2020-Jan-09 15:00N 47°36' W 122°18'   180 / 31018.9 3.0 1.8

Dump ship's entire track history